Red Gate, Texas
Current Conditions -  °F | °C
As of 6:53 AM on Thursday 23 Oct 2014 (Local Time) from KMFE Reporting Station
Few Clouds Few Clouds  
Wind Chill: 70°   Ceiling: Unl
Heat Index: 70°   Visibility: 10mi
Dew Point: 66°   Wind: 8mph
Humidity: 87%   Direction: 360°N
Pressure: 30.04"   Gusts: NA
Location:  26.2938°N, 98.1548°W
Report Text: KMFE 231153Z 36007KT 10SM FEW100 21/19 A3004 RMK AO2 SLP170 T02110189 10233 20206 53005
Loading
Personal Weather Stations






























Interactive Weather Map
Tropical Storm Tracking
New forecast layout! Learn more

10-Day Weather Forecast

Advertisements
Track Severe Weather on mobile